< Cyclone 199713 1997 Season Cyclone 199715 >
Cyclone 199714 (UNNAMED)
General InformationTrack Information on Google MapsDetailed Wind InformationList of All Images || ResourceGoogle EarthGE AnimationAtom FeedGeoJSON
Detalied Best Track (Time Zone = UTC)
Year Month Day Hour Lat. Long. Pressure (hPa) Wind (kt) Class Image Chart
1997 1 7 12 -15.6 92.8 1006 20 2 Image --
1997 1 7 18 -15.6 92.7 1004 20 2 Image --
1997 1 8 00 -15.6 92.7 1006 20 2 Image --
1997 1 8 06 -15.6 92.6 1006 20 2 Image --
1997 1 8 12 -15.6 92.5 1006 20 2 Image --
1997 1 8 18 -15.6 92.4 1006 20 2 Image --
1997 1 9 00 -15.6 92.3 1004 25 2 Image --
1997 1 9 06 -15.7 92.0 1004 25 2 Image --
1997 1 9 12 -15.9 92.0 1004 25 2 Image --
1997 1 9 18 -16.2 92.1 1002 30 2 Image --
1997 1 10 00 -16.8 92.3 1002 30 2 Image --
1997 1 10 06 -17.0 92.4 1002 30 2 Image --
1997 1 10 12 -17.5 92.5 1002 30 2 Image --
1997 1 10 18 -17.9 92.5 1000 30 2 Image --
1997 1 11 00 -18.4 92.4 998 35 3 Image --
1997 1 11 06 -18.6 92.0 996 40 3 Image --
1997 1 11 12 -18.9 91.4 991 50 4 Image --
1997 1 11 18 -19.6 90.8 992 50 4 Image --
1997 1 12 00 -20.4 90.3 992 50 4 Image --
1997 1 12 06 -21.2 89.6 992 50 4 Image --
1997 1 12 12 -21.9 88.2 996 40 3 Image --
1997 1 12 18 -22.6 86.8 998 35 3 Image --
1997 1 13 00 -23.5 85.6 1000 30 2 Image --
1997 1 13 06 -24.5 84.2 1000 30 2 Image --
1997 1 13 12 -25.4 82.8 1002 30 2 Image --
1997 1 13 18 -25.9 81.6 1002 30 2 Image --
< Cyclone 199713 1997 Season Cyclone 199715 >

Help